Wetterstation Vordersexau
Wetterdaten: Januar 2011
Datum Temp. A. Feuchte A. Luftdruck Regen Wind Richtung Taupunkt Windchill Windben
01.01.2011 0,4 C 88 % 1020,0 hPa 0,0 l/m 0,0 km/h N -1,3 C 0,4 C 0,0 km/h
02.01.2011 0,4 C 87 % 1020,4 hPa 1,4 l/m 0,0 km/h S-SO -1,5 C 0,4 C 0,0 km/h
03.01.2011 -1,5 C 86 % 1021,7 hPa 0,4 l/m 0,2 km/h NO -3,6 C -1,5 C 0,1 km/h
04.01.2011 -2,7 C 86 % 1017,4 hPa 0,0 l/m 1,2 km/h SO -4,7 C -3,1 C 0,7 km/h
05.01.2011 -0,6 C 81 % 1011,1 hPa 0,4 l/m 0,4 km/h W-SW -3,5 C -0,6 C 0,2 km/h
06.01.2011 6,0 C 84 % 1004,0 hPa 0,4 l/m 4,2 km/h NO 3,6 C 4,9 C 2,3 km/h
07.01.2011 10,2 C 86 % 1008,6 hPa 3,9 l/m 4,1 km/h SO 8,0 C 9,2 C 2,3 km/h
08.01.2011 10,7 C 84 % 1009,7 hPa 1,8 l/m 3,9 km/h NO 8,0 C 9,6 C 2,2 km/h
09.01.2011 7,7 C 85 % 1011,5 hPa 7,1 l/m 7,9 km/h NO 5,3 C 5,4 C 4,4 km/h
10.01.2011 3,4 C 88 % 1018,4 hPa 0,4 l/m 0,0 km/h W-NW 1,7 C 3,4 C 0,0 km/h
11.01.2011 4,9 C 86 % 1010,7 hPa 1,1 l/m 3,3 km/h W-SW 2,7 C 4,1 C 1,8 km/h
12.01.2011 6,7 C 83 % 1018,5 hPa 1,1 l/m 14,7 km/h SW 4,0 C 1,5 C 8,1 km/h
13.01.2011 10,8 C 87 % 1017,4 hPa 0,7 l/m 25,1 km/h W-SW 8,6 C 3,4 C 14,0 km/h
14.01.2011 10,5 C 83 % 1018,1 hPa 0,0 l/m 10,7 km/h W-SW 7,6 C 7,6 C 5,9 km/h
15.01.2011 8,6 C 82 % 1024,3 hPa 1,1 l/m 10,6 km/h W-SW 5,6 C 5,4 C 5,9 km/h
16.01.2011 5,1 C 82 % 1025,1 hPa 0,0 l/m 0,3 km/h O-NO 2,0 C 5,1 C 0,2 km/h
17.01.2011 5,0 C 81 % 1024,0 hPa 0,4 l/m 3,5 km/h O-NO 2,0 C 4,2 C 1,9 km/h
18.01.2011 7,4 C 84 % 1023,8 hPa 0,0 l/m 6,3 km/h SO 4,8 C 5,5 C 3,5 km/h
19.01.2011 4,0 C 83 % 1026,4 hPa 1,1 l/m 2,1 km/h SO 1,4 C 3,4 C 1,2 km/h
20.01.2011 0,8 C 87 % 1024,6 hPa 2,1 l/m 0,2 km/h NO -1,1 C 0,8 C 0,1 km/h
21.01.2011 -0,3 C 80 % 1028,0 hPa 0,4 l/m 1,2 km/h N-NO -3,5 C -0,5 C 0,7 km/h
22.01.2011 -1,9 C 71 % 1026,4 hPa 0,0 l/m 0,8 km/h NO -6,6 C -2,0 C 0,4 km/h
23.01.2011 -3,0 C 77 % 1024,0 hPa 0,0 l/m 0,1 km/h O-NO -6,7 C -3,0 C 0,0 km/h
24.01.2011 -0,7 C 82 % 1022,8 hPa 0,0 l/m 0,0 km/h SO -3,4 C -0,7 C 0,0 km/h
25.01.2011 1,8 C 84 % 1015,5 hPa 1,8 l/m 13,3 km/h W-SW -0,6 C -3,4 C 7,4 km/h
26.01.2011 2,2 C 87 % 1007,5 hPa 4,6 l/m 9,2 km/h SO 0,3 C -1,3 C 5,1 km/h
27.01.2011 1,6 C 87 % 1011,1 hPa 0,4 l/m 0,1 km/h O-SO -0,4 C 1,6 C 0,0 km/h
28.01.2011 1,8 C 76 % 1014,1 hPa 0,0 l/m 3,3 km/h SO -2,1 C 0,7 C 1,9 km/h
29.01.2011 -0,9 C 79 % 1014,0 hPa 0,0 l/m 1,1 km/h SO -4,1 C -1,1 C 0,6 km/h
30.01.2011 -3,0 C 85 % 1014,3 hPa 0,0 l/m 0,1 km/h SO -5,3 C -3,0 C 0,1 km/h
31.01.2011 -2,3 C 84 % 1020,1 hPa 0,0 l/m 0,9 km/h W-NW -4,7 C -2,5 C 0,5 km/h
Min-Datum 23.01.11 23.01.11 06.01.11 19 Tage 01.01.11 - 23.01.11 25.01.11 01.01.11
Min-Zeit 08:30 15:30 16:30 - 00:30 - 08:30 20:30 00:30
Minimum -8,8 C 52 % 1002,7 hPa - 0,0 km/h - -10,6 C -14,3 C 0,0 km/h
Max-Datum 08.01.11 01.01.11 21.01.11 09.01.11 25.01.11 - 07.01.11 08.01.11 25.01.11
Max-Zeit 14:30 11:30 21:30 19:30 20:30 - 12:30 14:30 20:30
Maximum 16,4 C 90 % 1029,1 hPa 7,1 l/m 46,7 km/h
W-SW
- 10,5 C 16,4 C 25,9 km/h
W-SW
Durchschnitt 3,0 C 83 % 1017,9 hPa #30,3 l/m 4,2 km/h SO 0,4 C 1,7 C 2,3 km/h

Durchschnitt Minimum Temp.-0,3 C
Durchschnitt Maximum Temp.7,3 C
www.sexauwetter.de